sensor_id;sensor_type;location;lat;lon;timestamp;temperature;humidity
59660;DHT22;45534;52.690;6.268;2023-03-11T00:00:12;0.20;99.90
59660;DHT22;45534;52.690;6.268;2023-03-11T00:02:39;0.20;99.90
59660;DHT22;45534;52.690;6.268;2023-03-11T00:05:06;0.20;99.90
59660;DHT22;45534;52.690;6.268;2023-03-11T00:07:32;0.30;99.90
59660;DHT22;45534;52.690;6.268;2023-03-11T00:09:58;0.30;99.90
59660;DHT22;45534;52.690;6.268;2023-03-11T00:12:24;0.30;99.90
59660;DHT22;45534;52.690;6.268;2023-03-11T00:14:50;0.30;99.90
59660;DHT22;45534;52.690;6.268;2023-03-11T00:17:15;0.30;99.90
59660;DHT22;45534;52.690;6.268;2023-03-11T00:19:41;0.30;99.90
59660;DHT22;45534;52.690;6.268;2023-03-11T00:22:07;0.30;99.90
59660;DHT22;45534;52.690;6.268;2023-03-11T00:24:33;0.30;99.90
59660;DHT22;45534;52.690;6.268;2023-03-11T00:26:59;0.30;99.90
59660;DHT22;45534;52.690;6.268;2023-03-11T00:29:24;0.30;99.90
59660;DHT22;45534;52.690;6.268;2023-03-11T00:31:50;0.30;99.90
59660;DHT22;45534;52.690;6.268;2023-03-11T00:34:16;0.30;99.90
59660;DHT22;45534;52.690;6.268;2023-03-11T00:36:41;0.30;99.90
59660;DHT22;45534;52.690;6.268;2023-03-11T00:39:07;0.30;99.90
59660;DHT22;45534;52.690;6.268;2023-03-11T00:41:34;0.30;99.90
59660;DHT22;45534;52.690;6.268;2023-03-11T00:43:59;0.30;99.90
59660;DHT22;45534;52.690;6.268;2023-03-11T00:46:26;0.30;99.90
59660;DHT22;45534;52.690;6.268;2023-03-11T00:48:52;0.30;99.90
59660;DHT22;45534;52.690;6.268;2023-03-11T00:51:18;0.30;99.90
59660;DHT22;45534;52.690;6.268;2023-03-11T00:53:43;0.30;99.90
59660;DHT22;45534;52.690;6.268;2023-03-11T00:56:11;0.20;99.90
59660;DHT22;45534;52.690;6.268;2023-03-11T00:58:38;0.20;99.90
59660;DHT22;45534;52.690;6.268;2023-03-11T01:01:12;0.20;99.90
59660;DHT22;45534;52.690;6.268;2023-03-11T01:03:38;0.20;99.90
59660;DHT22;45534;52.690;6.268;2023-03-11T01:06:04;0.30;99.90
59660;DHT22;45534;52.690;6.268;2023-03-11T01:08:30;0.20;99.90
59660;DHT22;45534;52.690;6.268;2023-03-11T01:10:57;0.30;99.90
59660;DHT22;45534;52.690;6.268;2023-03-11T01:13:23;0.30;99.90
59660;DHT22;45534;52.690;6.268;2023-03-11T01:15:49;0.30;99.90
59660;DHT22;45534;52.690;6.268;2023-03-11T01:18:15;0.30;99.90
59660;DHT22;45534;52.690;6.268;2023-03-11T01:20:41;0.30;99.90
59660;DHT22;45534;52.690;6.268;2023-03-11T01:23:07;0.20;99.90
59660;DHT22;45534;52.690;6.268;2023-03-11T01:25:34;0.20;99.90
59660;DHT22;45534;52.690;6.268;2023-03-11T01:28:00;0.20;99.90
59660;DHT22;45534;52.690;6.268;2023-03-11T01:30:27;0.20;99.90
59660;DHT22;45534;52.690;6.268;2023-03-11T01:32:55;0.10;99.90
59660;DHT22;45534;52.690;6.268;2023-03-11T01:35:22;0.10;99.90
59660;DHT22;45534;52.690;6.268;2023-03-11T01:37:48;0.10;99.90
59660;DHT22;45534;52.690;6.268;2023-03-11T01:40:19;0.10;99.90
59660;DHT22;45534;52.690;6.268;2023-03-11T01:42:46;0.00;99.90
59660;DHT22;45534;52.690;6.268;2023-03-11T01:48:14;0.00;99.90
59660;DHT22;45534;52.690;6.268;2023-03-11T01:50:45;-0.10;99.90
59660;DHT22;45534;52.690;6.268;2023-03-11T01:53:14;-0.10;99.90
59660;DHT22;45534;52.690;6.268;2023-03-11T01:55:41;-0.10;99.90
59660;DHT22;45534;52.690;6.268;2023-03-11T01:58:11;-0.10;99.90
59660;DHT22;45534;52.690;6.268;2023-03-11T02:00:38;-0.10;99.90
59660;DHT22;45534;52.690;6.268;2023-03-11T02:03:13;-0.10;99.90
59660;DHT22;45534;52.690;6.268;2023-03-11T02:05:41;-0.10;99.90
59660;DHT22;45534;52.690;6.268;2023-03-11T02:08:07;-0.10;99.90
59660;DHT22;45534;52.690;6.268;2023-03-11T02:10:33;-0.10;99.90
59660;DHT22;45534;52.690;6.268;2023-03-11T02:12:59;-0.10;99.90
59660;DHT22;45534;52.690;6.268;2023-03-11T02:15:27;-0.10;99.90
59660;DHT22;45534;52.690;6.268;2023-03-11T02:17:53;-0.10;99.90
59660;DHT22;45534;52.690;6.268;2023-03-11T02:22:54;-0.10;99.90
59660;DHT22;45534;52.690;6.268;2023-03-11T02:25:35;0.00;99.90
59660;DHT22;45534;52.690;6.268;2023-03-11T02:28:04;-0.10;99.90
59660;DHT22;45534;52.690;6.268;2023-03-11T02:30:33;0.00;99.90
59660;DHT22;45534;52.690;6.268;2023-03-11T02:33:00;0.00;99.90
59660;DHT22;45534;52.690;6.268;2023-03-11T02:35:27;0.00;99.90
59660;DHT22;45534;52.690;6.268;2023-03-11T02:37:54;0.00;99.90
59660;DHT22;45534;52.690;6.268;2023-03-11T02:42:57;0.00;99.90
59660;DHT22;45534;52.690;6.268;2023-03-11T02:45:25;0.00;99.90
59660;DHT22;45534;52.690;6.268;2023-03-11T02:47:51;0.00;99.90
59660;DHT22;45534;52.690;6.268;2023-03-11T02:50:17;0.00;99.90
59660;DHT22;45534;52.690;6.268;2023-03-11T02:52:43;0.00;99.90
59660;DHT22;45534;52.690;6.268;2023-03-11T02:55:10;0.00;99.90
59660;DHT22;45534;52.690;6.268;2023-03-11T02:57:41;0.00;99.90
59660;DHT22;45534;52.690;6.268;2023-03-11T03:00:08;-0.10;99.90
59660;DHT22;45534;52.690;6.268;2023-03-11T03:02:35;-0.10;99.90
59660;DHT22;45534;52.690;6.268;2023-03-11T03:05:02;-0.10;99.90
59660;DHT22;45534;52.690;6.268;2023-03-11T03:07:28;-0.10;99.90
59660;DHT22;45534;52.690;6.268;2023-03-11T03:09:54;-0.20;99.90
59660;DHT22;45534;52.690;6.268;2023-03-11T03:12:19;-0.20;99.90
59660;DHT22;45534;52.690;6.268;2023-03-11T03:14:45;-0.30;99.90
59660;DHT22;45534;52.690;6.268;2023-03-11T03:17:11;-0.30;99.90
59660;DHT22;45534;52.690;6.268;2023-03-11T03:19:36;-0.30;99.90
59660;DHT22;45534;52.690;6.268;2023-03-11T03:22:02;-0.40;99.90
59660;DHT22;45534;52.690;6.268;2023-03-11T03:24:28;-0.40;99.90
59660;DHT22;45534;52.690;6.268;2023-03-11T03:26:53;-0.40;99.90
59660;DHT22;45534;52.690;6.268;2023-03-11T03:29:19;-0.50;99.90
59660;DHT22;45534;52.690;6.268;2023-03-11T03:31:45;-0.50;99.90
59660;DHT22;45534;52.690;6.268;2023-03-11T03:34:11;-0.60;99.90
59660;DHT22;45534;52.690;6.268;2023-03-11T03:36:36;-0.60;99.90
59660;DHT22;45534;52.690;6.268;2023-03-11T03:39:02;-0.60;99.90
59660;DHT22;45534;52.690;6.268;2023-03-11T03:41:28;-0.70;99.90
59660;DHT22;45534;52.690;6.268;2023-03-11T03:43:54;-0.70;99.90
59660;DHT22;45534;52.690;6.268;2023-03-11T03:46:20;-0.70;99.90
59660;DHT22;45534;52.690;6.268;2023-03-11T03:48:46;-0.70;99.90
59660;DHT22;45534;52.690;6.268;2023-03-11T03:51:13;-0.70;99.90
59660;DHT22;45534;52.690;6.268;2023-03-11T03:53:39;-0.70;99.90
59660;DHT22;45534;52.690;6.268;2023-03-11T03:56:07;-0.80;99.90
59660;DHT22;45534;52.690;6.268;2023-03-11T03:58:34;-0.70;99.90
59660;DHT22;45534;52.690;6.268;2023-03-11T04:00:59;-0.80;99.90
59660;DHT22;45534;52.690;6.268;2023-03-11T04:03:26;-0.80;99.90
59660;DHT22;45534;52.690;6.268;2023-03-11T04:05:53;-0.80;99.90
59660;DHT22;45534;52.690;6.268;2023-03-11T04:08:18;-0.80;99.90
59660;DHT22;45534;52.690;6.268;2023-03-11T04:10:44;-0.80;99.90
59660;DHT22;45534;52.690;6.268;2023-03-11T04:13:10;-0.80;99.90
59660;DHT22;45534;52.690;6.268;2023-03-11T04:15:39;-0.80;99.90
59660;DHT22;45534;52.690;6.268;2023-03-11T04:18:04;-0.80;99.90
59660;DHT22;45534;52.690;6.268;2023-03-11T04:20:30;-0.80;99.90
59660;DHT22;45534;52.690;6.268;2023-03-11T04:22:56;-0.80;99.90
59660;DHT22;45534;52.690;6.268;2023-03-11T04:25:21;-0.80;99.90
59660;DHT22;45534;52.690;6.268;2023-03-11T04:27:47;-0.80;99.90
59660;DHT22;45534;52.690;6.268;2023-03-11T04:30:14;-0.80;99.90
59660;DHT22;45534;52.690;6.268;2023-03-11T04:32:40;-0.80;99.90
59660;DHT22;45534;52.690;6.268;2023-03-11T04:35:06;-0.80;99.90
59660;DHT22;45534;52.690;6.268;2023-03-11T04:37:32;-0.80;99.90
59660;DHT22;45534;52.690;6.268;2023-03-11T04:39:58;-0.80;99.90
59660;DHT22;45534;52.690;6.268;2023-03-11T04:42:23;-0.70;99.90
59660;DHT22;45534;52.690;6.268;2023-03-11T04:44:49;-0.70;99.90
59660;DHT22;45534;52.690;6.268;2023-03-11T04:47:15;-0.80;99.90
59660;DHT22;45534;52.690;6.268;2023-03-11T04:49:41;-0.80;99.90
59660;DHT22;45534;52.690;6.268;2023-03-11T04:52:06;-0.80;99.90
59660;DHT22;45534;52.690;6.268;2023-03-11T04:54:32;-0.80;99.90
59660;DHT22;45534;52.690;6.268;2023-03-11T04:56:58;-0.80;99.90
59660;DHT22;45534;52.690;6.268;2023-03-11T04:59:24;-0.80;99.90
59660;DHT22;45534;52.690;6.268;2023-03-11T05:01:49;-0.90;99.90
59660;DHT22;45534;52.690;6.268;2023-03-11T05:04:15;-0.90;99.90
59660;DHT22;45534;52.690;6.268;2023-03-11T05:06:41;-0.90;99.90
59660;DHT22;45534;52.690;6.268;2023-03-11T05:09:06;-0.90;99.90
59660;DHT22;45534;52.690;6.268;2023-03-11T05:11:32;-1.00;99.90
59660;DHT22;45534;52.690;6.268;2023-03-11T05:13:58;-1.00;99.90
59660;DHT22;45534;52.690;6.268;2023-03-11T05:16:23;-1.00;99.90
59660;DHT22;45534;52.690;6.268;2023-03-11T05:18:49;-1.00;99.90
59660;DHT22;45534;52.690;6.268;2023-03-11T05:21:15;-1.00;99.90
59660;DHT22;45534;52.690;6.268;2023-03-11T05:23:40;-1.00;99.90
59660;DHT22;45534;52.690;6.268;2023-03-11T05:26:07;-1.00;99.90
59660;DHT22;45534;52.690;6.268;2023-03-11T05:28:32;-1.00;99.90
59660;DHT22;45534;52.690;6.268;2023-03-11T05:30:58;-1.00;99.90
59660;DHT22;45534;52.690;6.268;2023-03-11T05:33:24;-1.00;99.90
59660;DHT22;45534;52.690;6.268;2023-03-11T05:35:49;-1.00;99.90
59660;DHT22;45534;52.690;6.268;2023-03-11T05:38:16;-1.10;99.90
59660;DHT22;45534;52.690;6.268;2023-03-11T05:40:42;-1.10;99.90
59660;DHT22;45534;52.690;6.268;2023-03-11T05:43:07;-1.10;99.90
59660;DHT22;45534;52.690;6.268;2023-03-11T05:45:33;-1.10;99.90
59660;DHT22;45534;52.690;6.268;2023-03-11T05:47:59;-1.10;99.90
59660;DHT22;45534;52.690;6.268;2023-03-11T05:50:25;-1.20;99.90
59660;DHT22;45534;52.690;6.268;2023-03-11T05:52:50;-1.20;99.90
59660;DHT22;45534;52.690;6.268;2023-03-11T05:55:16;-1.20;99.90
59660;DHT22;45534;52.690;6.268;2023-03-11T05:57:42;-1.20;99.90
59660;DHT22;45534;52.690;6.268;2023-03-11T06:00:08;-1.30;99.90
59660;DHT22;45534;52.690;6.268;2023-03-11T06:02:38;-1.30;99.90
59660;DHT22;45534;52.690;6.268;2023-03-11T06:05:05;-1.30;99.90
59660;DHT22;45534;52.690;6.268;2023-03-11T06:07:33;-1.30;99.90
59660;DHT22;45534;52.690;6.268;2023-03-11T06:09:59;-1.30;99.90
59660;DHT22;45534;52.690;6.268;2023-03-11T06:12:24;-1.30;99.90
59660;DHT22;45534;52.690;6.268;2023-03-11T06:14:52;-1.30;99.90
59660;DHT22;45534;52.690;6.268;2023-03-11T06:17:18;-1.40;99.90
59660;DHT22;45534;52.690;6.268;2023-03-11T06:19:43;-1.40;99.90
59660;DHT22;45534;52.690;6.268;2023-03-11T06:22:09;-1.40;99.90
59660;DHT22;45534;52.690;6.268;2023-03-11T06:24:35;-1.40;99.90
59660;DHT22;45534;52.690;6.268;2023-03-11T06:27:01;-1.40;99.90
59660;DHT22;45534;52.690;6.268;2023-03-11T06:29:27;-1.50;99.90
59660;DHT22;45534;52.690;6.268;2023-03-11T06:31:54;-1.50;99.90
59660;DHT22;45534;52.690;6.268;2023-03-11T06:34:19;-1.50;99.90
59660;DHT22;45534;52.690;6.268;2023-03-11T06:36:45;-1.50;99.90
59660;DHT22;45534;52.690;6.268;2023-03-11T06:39:12;-1.50;99.90
59660;DHT22;45534;52.690;6.268;2023-03-11T06:41:39;-1.60;99.90
59660;DHT22;45534;52.690;6.268;2023-03-11T06:44:05;-1.50;99.90
59660;DHT22;45534;52.690;6.268;2023-03-11T06:46:31;-1.50;99.90
59660;DHT22;45534;52.690;6.268;2023-03-11T06:48:57;-1.40;99.90
59660;DHT22;45534;52.690;6.268;2023-03-11T06:51:22;-1.40;99.90
59660;DHT22;45534;52.690;6.268;2023-03-11T06:53:49;-1.40;99.90
59660;DHT22;45534;52.690;6.268;2023-03-11T06:56:17;-1.40;99.90
59660;DHT22;45534;52.690;6.268;2023-03-11T06:58:43;-1.40;99.90
59660;DHT22;45534;52.690;6.268;2023-03-11T07:03:36;-1.40;99.90
59660;DHT22;45534;52.690;6.268;2023-03-11T07:06:02;-1.40;99.90
59660;DHT22;45534;52.690;6.268;2023-03-11T07:08:28;-1.30;99.90
59660;DHT22;45534;52.690;6.268;2023-03-11T07:11:04;-1.30;99.90
59660;DHT22;45534;52.690;6.268;2023-03-11T07:13:30;-1.20;99.90
59660;DHT22;45534;52.690;6.268;2023-03-11T07:16:11;-1.10;99.90
59660;DHT22;45534;52.690;6.268;2023-03-11T07:18:37;-1.10;99.90
59660;DHT22;45534;52.690;6.268;2023-03-11T07:21:05;-1.00;99.90
59660;DHT22;45534;52.690;6.268;2023-03-11T07:23:31;-0.90;99.90
59660;DHT22;45534;52.690;6.268;2023-03-11T07:25:57;-0.80;99.90
59660;DHT22;45534;52.690;6.268;2023-03-11T07:28:23;-0.70;99.90
59660;DHT22;45534;52.690;6.268;2023-03-11T07:30:50;-0.60;99.90
59660;DHT22;45534;52.690;6.268;2023-03-11T07:33:16;-0.50;99.90
59660;DHT22;45534;52.690;6.268;2023-03-11T07:35:42;-0.40;99.90
59660;DHT22;45534;52.690;6.268;2023-03-11T07:38:08;-0.40;99.90
59660;DHT22;45534;52.690;6.268;2023-03-11T07:40:34;-0.30;99.90
59660;DHT22;45534;52.690;6.268;2023-03-11T07:43:00;-0.20;99.90
59660;DHT22;45534;52.690;6.268;2023-03-11T07:45:26;-0.20;99.90
59660;DHT22;45534;52.690;6.268;2023-03-11T07:47:51;-0.10;99.90
59660;DHT22;45534;52.690;6.268;2023-03-11T07:50:17;-0.10;99.90
59660;DHT22;45534;52.690;6.268;2023-03-11T07:52:43;0.00;99.90
59660;DHT22;45534;52.690;6.268;2023-03-11T07:55:09;0.10;99.90
59660;DHT22;45534;52.690;6.268;2023-03-11T07:57:35;0.10;99.90
59660;DHT22;45534;52.690;6.268;2023-03-11T08:00:01;0.20;99.90
59660;DHT22;45534;52.690;6.268;2023-03-11T08:02:27;0.30;99.90
59660;DHT22;45534;52.690;6.268;2023-03-11T08:04:54;0.30;99.90
59660;DHT22;45534;52.690;6.268;2023-03-11T08:07:20;0.40;99.90
59660;DHT22;45534;52.690;6.268;2023-03-11T08:09:46;0.40;99.90
59660;DHT22;45534;52.690;6.268;2023-03-11T08:12:11;0.40;99.90
59660;DHT22;45534;52.690;6.268;2023-03-11T08:14:37;0.50;99.90
59660;DHT22;45534;52.690;6.268;2023-03-11T08:17:04;0.50;99.90
59660;DHT22;45534;52.690;6.268;2023-03-11T08:19:30;0.50;99.90
59660;DHT22;45534;52.690;6.268;2023-03-11T08:21:56;0.50;99.90
59660;DHT22;45534;52.690;6.268;2023-03-11T08:24:22;0.60;99.90
59660;DHT22;45534;52.690;6.268;2023-03-11T08:26:47;0.60;99.90
59660;DHT22;45534;52.690;6.268;2023-03-11T08:29:13;0.60;99.90
59660;DHT22;45534;52.690;6.268;2023-03-11T08:31:39;0.70;99.90
59660;DHT22;45534;52.690;6.268;2023-03-11T08:34:08;0.70;99.90
59660;DHT22;45534;52.690;6.268;2023-03-11T08:36:34;0.70;99.90
59660;DHT22;45534;52.690;6.268;2023-03-11T08:39:00;0.80;99.90
59660;DHT22;45534;52.690;6.268;2023-03-11T08:41:26;0.80;99.90
59660;DHT22;45534;52.690;6.268;2023-03-11T08:43:52;0.90;99.90
59660;DHT22;45534;52.690;6.268;2023-03-11T08:46:38;1.00;99.90
59660;DHT22;45534;52.690;6.268;2023-03-11T08:49:05;1.10;99.90
59660;DHT22;45534;52.690;6.268;2023-03-11T08:51:32;1.20;99.90
59660;DHT22;45534;52.690;6.268;2023-03-11T08:53:59;1.20;99.90
59660;DHT22;45534;52.690;6.268;2023-03-11T08:56:25;1.30;99.90
59660;DHT22;45534;52.690;6.268;2023-03-11T08:58:51;1.30;99.90
59660;DHT22;45534;52.690;6.268;2023-03-11T09:01:17;1.40;99.90
59660;DHT22;45534;52.690;6.268;2023-03-11T09:03:44;1.40;99.90
59660;DHT22;45534;52.690;6.268;2023-03-11T09:06:12;1.40;99.90
59660;DHT22;45534;52.690;6.268;2023-03-11T09:08:40;1.50;99.90
59660;DHT22;45534;52.690;6.268;2023-03-11T09:11:05;1.60;99.90
59660;DHT22;45534;52.690;6.268;2023-03-11T09:13:31;1.70;99.90
59660;DHT22;45534;52.690;6.268;2023-03-11T09:15:57;1.80;99.90
59660;DHT22;45534;52.690;6.268;2023-03-11T09:18:23;1.80;99.90
59660;DHT22;45534;52.690;6.268;2023-03-11T09:20:49;1.90;99.90
59660;DHT22;45534;52.690;6.268;2023-03-11T09:23:15;2.00;99.90
59660;DHT22;45534;52.690;6.268;2023-03-11T09:25:41;2.00;99.90
59660;DHT22;45534;52.690;6.268;2023-03-11T09:28:07;2.10;99.90
59660;DHT22;45534;52.690;6.268;2023-03-11T09:30:33;2.20;99.90
59660;DHT22;45534;52.690;6.268;2023-03-11T09:33:00;2.30;99.90
59660;DHT22;45534;52.690;6.268;2023-03-11T09:35:25;2.30;99.90
59660;DHT22;45534;52.690;6.268;2023-03-11T09:37:51;2.40;99.90
59660;DHT22;45534;52.690;6.268;2023-03-11T09:40:21;2.50;99.90
59660;DHT22;45534;52.690;6.268;2023-03-11T09:45:52;2.60;99.90
59660;DHT22;45534;52.690;6.268;2023-03-11T09:51:02;2.80;99.90
59660;DHT22;45534;52.690;6.268;2023-03-11T09:53:44;2.90;99.90
59660;DHT22;45534;52.690;6.268;2023-03-11T09:56:14;3.00;99.90
59660;DHT22;45534;52.690;6.268;2023-03-11T09:58:54;3.10;99.90
59660;DHT22;45534;52.690;6.268;2023-03-11T10:01:32;3.10;99.90
59660;DHT22;45534;52.690;6.268;2023-03-11T10:06:31;3.30;99.90
59660;DHT22;45534;52.690;6.268;2023-03-11T10:12:01;3.50;99.90
59660;DHT22;45534;52.690;6.268;2023-03-11T10:19:49;3.70;99.90
59660;DHT22;45534;52.690;6.268;2023-03-11T10:22:28;3.80;99.90
59660;DHT22;45534;52.690;6.268;2023-03-11T10:27:39;3.90;99.90
59660;DHT22;45534;52.690;6.268;2023-03-11T10:32:50;4.00;99.90
59660;DHT22;45534;52.690;6.268;2023-03-11T10:35:17;4.10;99.90
59660;DHT22;45534;52.690;6.268;2023-03-11T10:38:25;4.10;99.90
59660;DHT22;45534;52.690;6.268;2023-03-11T10:40:46;4.20;99.90
59660;DHT22;45534;52.690;6.268;2023-03-11T10:43:24;4.30;99.90
59660;DHT22;45534;52.690;6.268;2023-03-11T10:45:52;4.40;99.90
59660;DHT22;45534;52.690;6.268;2023-03-11T10:48:20;4.50;99.90
59660;DHT22;45534;52.690;6.268;2023-03-11T10:50:50;4.50;99.90
59660;DHT22;45534;52.690;6.268;2023-03-11T10:53:18;4.50;99.90
59660;DHT22;45534;52.690;6.268;2023-03-11T10:55:52;4.60;99.90
59660;DHT22;45534;52.690;6.268;2023-03-11T10:58:21;4.70;99.90
59660;DHT22;45534;52.690;6.268;2023-03-11T11:01:10;4.90;99.90
59660;DHT22;45534;52.690;6.268;2023-03-11T11:03:41;5.30;99.90
59660;DHT22;45534;52.690;6.268;2023-03-11T11:06:18;5.40;99.90
59660;DHT22;45534;52.690;6.268;2023-03-11T11:08:45;5.60;99.90
59660;DHT22;45534;52.690;6.268;2023-03-11T11:11:22;5.90;99.90
59660;DHT22;45534;52.690;6.268;2023-03-11T11:13:58;6.10;99.90
59660;DHT22;45534;52.690;6.268;2023-03-11T11:16:26;6.30;99.90
59660;DHT22;45534;52.690;6.268;2023-03-11T11:19:03;6.40;99.90
59660;DHT22;45534;52.690;6.268;2023-03-11T11:21:52;6.60;99.90
59660;DHT22;45534;52.690;6.268;2023-03-11T11:24:29;6.70;99.90
59660;DHT22;45534;52.690;6.268;2023-03-11T11:30:22;7.00;99.90
59660;DHT22;45534;52.690;6.268;2023-03-11T11:32:48;7.20;99.90
59660;DHT22;45534;52.690;6.268;2023-03-11T11:35:19;7.30;99.90
59660;DHT22;45534;52.690;6.268;2023-03-11T11:37:58;7.30;99.90
59660;DHT22;45534;52.690;6.268;2023-03-11T11:40:32;7.30;99.90
59660;DHT22;45534;52.690;6.268;2023-03-11T11:43:04;7.40;99.90
59660;DHT22;45534;52.690;6.268;2023-03-11T11:45:37;7.50;99.90
59660;DHT22;45534;52.690;6.268;2023-03-11T11:48:15;7.70;99.90
59660;DHT22;45534;52.690;6.268;2023-03-11T11:50:51;7.70;99.90
59660;DHT22;45534;52.690;6.268;2023-03-11T11:56:03;8.00;99.90
59660;DHT22;45534;52.690;6.268;2023-03-11T11:58:30;8.10;99.90
59660;DHT22;45534;52.690;6.268;2023-03-11T12:04:09;8.10;99.90
59660;DHT22;45534;52.690;6.268;2023-03-11T12:15:14;8.40;99.90
59660;DHT22;45534;52.690;6.268;2023-03-11T12:17:46;8.20;99.90
59660;DHT22;45534;52.690;6.268;2023-03-11T12:20:14;8.20;99.90
59660;DHT22;45534;52.690;6.268;2023-03-11T12:30:44;8.60;99.90
59660;DHT22;45534;52.690;6.268;2023-03-11T12:33:16;8.70;99.90
59660;DHT22;45534;52.690;6.268;2023-03-11T12:35:53;8.90;99.90
59660;DHT22;45534;52.690;6.268;2023-03-11T12:38:33;8.90;99.90
59660;DHT22;45534;52.690;6.268;2023-03-11T12:41:35;8.60;99.90
59660;DHT22;45534;52.690;6.268;2023-03-11T12:49:26;9.20;99.10
59660;DHT22;45534;52.690;6.268;2023-03-11T12:54:41;9.90;99.90
59660;DHT22;45534;52.690;6.268;2023-03-11T13:05:58;10.50;99.90
59660;DHT22;45534;52.690;6.268;2023-03-11T13:08:42;10.60;99.90
59660;DHT22;45534;52.690;6.268;2023-03-11T13:11:45;10.80;98.00
59660;DHT22;45534;52.690;6.268;2023-03-11T13:16:41;10.90;99.90
59660;DHT22;45534;52.690;6.268;2023-03-11T13:21:52;11.30;99.90
59660;DHT22;45534;52.690;6.268;2023-03-11T13:40:46;11.40;99.90
59660;DHT22;45534;52.690;6.268;2023-03-11T13:43:20;11.50;99.90
59660;DHT22;45534;52.690;6.268;2023-03-11T13:46:08;11.80;99.90
59660;DHT22;45534;52.690;6.268;2023-03-11T13:48:39;12.10;95.60
59660;DHT22;45534;52.690;6.268;2023-03-11T13:51:30;12.30;99.90
59660;DHT22;45534;52.690;6.268;2023-03-11T13:56:50;12.70;93.30
59660;DHT22;45534;52.690;6.268;2023-03-11T13:59:28;12.90;96.80
59660;DHT22;45534;52.690;6.268;2023-03-11T14:02:13;12.40;83.30
59660;DHT22;45534;52.690;6.268;2023-03-11T14:04:47;12.40;93.20
59660;DHT22;45534;52.690;6.268;2023-03-11T14:09:47;11.90;94.80
59660;DHT22;45534;52.690;6.268;2023-03-11T14:12:13;11.70;96.00
59660;DHT22;45534;52.690;6.268;2023-03-11T14:14:53;12.10;94.00
59660;DHT22;45534;52.690;6.268;2023-03-11T14:17:20;12.60;94.20
59660;DHT22;45534;52.690;6.268;2023-03-11T14:20:09;13.00;95.30
59660;DHT22;45534;52.690;6.268;2023-03-11T14:22:36;12.70;88.70
59660;DHT22;45534;52.690;6.268;2023-03-11T14:25:08;12.30;95.70
59660;DHT22;45534;52.690;6.268;2023-03-11T14:27:35;11.70;80.60
59660;DHT22;45534;52.690;6.268;2023-03-11T14:30:03;11.00;77.80
59660;DHT22;45534;52.690;6.268;2023-03-11T14:32:32;10.50;88.70
59660;DHT22;45534;52.690;6.268;2023-03-11T14:34:58;10.70;86.30
59660;DHT22;45534;52.690;6.268;2023-03-11T14:37:31;10.80;78.90
59660;DHT22;45534;52.690;6.268;2023-03-11T14:39:57;10.70;81.80
59660;DHT22;45534;52.690;6.268;2023-03-11T14:42:37;11.20;95.10
59660;DHT22;45534;52.690;6.268;2023-03-11T14:45:17;11.90;94.60
59660;DHT22;45534;52.690;6.268;2023-03-11T14:50:28;13.00;93.30
59660;DHT22;45534;52.690;6.268;2023-03-11T14:55:31;13.80;94.40
59660;DHT22;45534;52.690;6.268;2023-03-11T14:58:34;14.10;94.80
59660;DHT22;45534;52.690;6.268;2023-03-11T15:03:43;13.90;94.50
59660;DHT22;45534;52.690;6.268;2023-03-11T15:06:23;13.40;84.10
59660;DHT22;45534;52.690;6.268;2023-03-11T15:08:57;13.10;89.10
59660;DHT22;45534;52.690;6.268;2023-03-11T15:11:25;12.90;82.90
59660;DHT22;45534;52.690;6.268;2023-03-11T15:13:54;12.80;87.80
59660;DHT22;45534;52.690;6.268;2023-03-11T15:16:32;12.70;81.80
59660;DHT22;45534;52.690;6.268;2023-03-11T15:21:47;12.40;68.70
59660;DHT22;45534;52.690;6.268;2023-03-11T15:24:24;12.10;81.40
59660;DHT22;45534;52.690;6.268;2023-03-11T15:27:00;12.10;73.40
59660;DHT22;45534;52.690;6.268;2023-03-11T15:29:27;11.70;71.10
59660;DHT22;45534;52.690;6.268;2023-03-11T15:31:54;11.40;83.90
59660;DHT22;45534;52.690;6.268;2023-03-11T15:34:31;11.20;82.50
59660;DHT22;45534;52.690;6.268;2023-03-11T15:37:03;10.70;69.90
59660;DHT22;45534;52.690;6.268;2023-03-11T15:42:00;10.70;87.50
59660;DHT22;45534;52.690;6.268;2023-03-11T15:45:01;10.90;84.50
59660;DHT22;45534;52.690;6.268;2023-03-11T15:47:27;10.70;74.60
59660;DHT22;45534;52.690;6.268;2023-03-11T15:49:53;10.30;86.70
59660;DHT22;45534;52.690;6.268;2023-03-11T15:52:19;10.10;76.80
59660;DHT22;45534;52.690;6.268;2023-03-11T15:54:46;9.90;86.90
59660;DHT22;45534;52.690;6.268;2023-03-11T15:57:23;9.70;88.10
59660;DHT22;45534;52.690;6.268;2023-03-11T15:59:50;9.60;88.20
59660;DHT22;45534;52.690;6.268;2023-03-11T16:02:26;9.40;89.80
59660;DHT22;45534;52.690;6.268;2023-03-11T16:04:53;9.00;88.10
59660;DHT22;45534;52.690;6.268;2023-03-11T16:07:19;8.70;93.40
59660;DHT22;45534;52.690;6.268;2023-03-11T16:09:44;8.30;91.50
59660;DHT22;45534;52.690;6.268;2023-03-11T16:12:20;8.10;90.20
59660;DHT22;45534;52.690;6.268;2023-03-11T16:14:47;7.90;90.40
59660;DHT22;45534;52.690;6.268;2023-03-11T16:17:13;7.80;93.20
59660;DHT22;45534;52.690;6.268;2023-03-11T16:19:44;7.80;95.50
59660;DHT22;45534;52.690;6.268;2023-03-11T16:22:16;7.70;97.00
59660;DHT22;45534;52.690;6.268;2023-03-11T16:24:44;7.70;97.30
59660;DHT22;45534;52.690;6.268;2023-03-11T16:27:13;7.70;99.50
59660;DHT22;45534;52.690;6.268;2023-03-11T16:29:40;7.70;99.90
59660;DHT22;45534;52.690;6.268;2023-03-11T16:32:06;7.70;99.80
59660;DHT22;45534;52.690;6.268;2023-03-11T16:34:33;7.70;96.70
59660;DHT22;45534;52.690;6.268;2023-03-11T16:36:58;7.60;98.40
59660;DHT22;45534;52.690;6.268;2023-03-11T16:39:24;7.50;98.10
59660;DHT22;45534;52.690;6.268;2023-03-11T16:41:50;7.30;95.10
59660;DHT22;45534;52.690;6.268;2023-03-11T16:44:15;6.70;99.90
59660;DHT22;45534;52.690;6.268;2023-03-11T16:46:41;6.10;99.90
59660;DHT22;45534;52.690;6.268;2023-03-11T16:49:07;5.60;99.90
59660;DHT22;45534;52.690;6.268;2023-03-11T16:51:32;5.30;99.90
59660;DHT22;45534;52.690;6.268;2023-03-11T16:53:58;5.10;99.90
59660;DHT22;45534;52.690;6.268;2023-03-11T16:56:24;5.00;99.90
59660;DHT22;45534;52.690;6.268;2023-03-11T16:58:50;4.90;99.90
59660;DHT22;45534;52.690;6.268;2023-03-11T17:01:15;4.80;99.90
59660;DHT22;45534;52.690;6.268;2023-03-11T17:03:43;4.80;99.90
59660;DHT22;45534;52.690;6.268;2023-03-11T17:06:13;4.70;99.90
59660;DHT22;45534;52.690;6.268;2023-03-11T17:08:39;4.60;99.90
59660;DHT22;45534;52.690;6.268;2023-03-11T17:11:05;4.50;99.90
59660;DHT22;45534;52.690;6.268;2023-03-11T17:13:30;4.50;99.90
59660;DHT22;45534;52.690;6.268;2023-03-11T17:16:00;4.40;99.90
59660;DHT22;45534;52.690;6.268;2023-03-11T17:18:26;4.30;99.90
59660;DHT22;45534;52.690;6.268;2023-03-11T17:20:52;4.20;99.90
59660;DHT22;45534;52.690;6.268;2023-03-11T17:23:18;4.20;99.90
59660;DHT22;45534;52.690;6.268;2023-03-11T17:25:44;4.20;99.90
59660;DHT22;45534;52.690;6.268;2023-03-11T17:28:10;4.20;99.90
59660;DHT22;45534;52.690;6.268;2023-03-11T17:30:41;4.20;99.90
59660;DHT22;45534;52.690;6.268;2023-03-11T17:33:07;4.20;99.90
59660;DHT22;45534;52.690;6.268;2023-03-11T17:35:33;4.20;99.90
59660;DHT22;45534;52.690;6.268;2023-03-11T17:37:59;4.20;99.90
59660;DHT22;45534;52.690;6.268;2023-03-11T17:40:25;4.20;99.90
59660;DHT22;45534;52.690;6.268;2023-03-11T17:42:53;4.30;99.90